sensor_id;sensor_type;location;lat;lon;timestamp;pressure;altitude;pressure_sealevel;temperature;humidity
59409;BME280;45213;32.654;-115.458;2022-07-21T00:02:23;100869.78;;;42.29;20.57
59409;BME280;45213;32.654;-115.458;2022-07-21T00:04:58;100852.13;;;42.32;21.09
59409;BME280;45213;32.654;-115.458;2022-07-21T00:07:28;100852.88;;;42.26;20.40
59409;BME280;45213;32.654;-115.458;2022-07-21T00:09:58;100857.38;;;42.48;18.86
59409;BME280;45213;32.654;-115.458;2022-07-21T00:12:29;100848.50;;;42.46;18.98
59409;BME280;45213;32.654;-115.458;2022-07-21T00:14:56;100842.72;;;42.56;18.18
59409;BME280;45213;32.654;-115.458;2022-07-21T00:17:32;100843.19;;;42.60;18.55
59409;BME280;45213;32.654;-115.458;2022-07-21T00:20:04;100836.09;;;42.65;17.77
59409;BME280;45213;32.654;-115.458;2022-07-21T00:22:34;100837.28;;;42.63;18.09
59409;BME280;45213;32.654;-115.458;2022-07-21T00:25:03;100830.41;;;42.45;18.33
59409;BME280;45213;32.654;-115.458;2022-07-21T00:27:30;100832.50;;;42.43;18.89
59409;BME280;45213;32.654;-115.458;2022-07-21T00:30:07;100817.50;;;42.24;18.48
59409;BME280;45213;32.654;-115.458;2022-07-21T00:32:36;100814.72;;;42.18;19.56
59409;BME280;45213;32.654;-115.458;2022-07-21T00:35:08;100820.72;;;42.28;19.49
59409;BME280;45213;32.654;-115.458;2022-07-21T00:37:37;100818.16;;;42.41;18.95
59409;BME280;45213;32.654;-115.458;2022-07-21T00:40:07;100816.31;;;42.48;18.59
59409;BME280;45213;32.654;-115.458;2022-07-21T00:42:35;100815.91;;;42.51;19.09
59409;BME280;45213;32.654;-115.458;2022-07-21T00:45:05;100805.63;;;42.53;18.29
59409;BME280;45213;32.654;-115.458;2022-07-21T00:47:41;100797.03;;;42.57;18.11
59409;BME280;45213;32.654;-115.458;2022-07-21T00:50:15;100795.59;;;42.39;18.28
59409;BME280;45213;32.654;-115.458;2022-07-21T00:52:47;100799.47;;;42.30;18.20
59409;BME280;45213;32.654;-115.458;2022-07-21T00:55:17;100790.22;;;42.31;18.54
59409;BME280;45213;32.654;-115.458;2022-07-21T00:57:45;100788.13;;;42.33;17.99
59409;BME280;45213;32.654;-115.458;2022-07-21T01:00:26;100781.91;;;42.18;18.39
59409;BME280;45213;32.654;-115.458;2022-07-21T01:02:55;100773.91;;;42.01;18.43
59409;BME280;45213;32.654;-115.458;2022-07-21T01:05:26;100762.00;;;41.94;18.55
59409;BME280;45213;32.654;-115.458;2022-07-21T01:10:41;100771.72;;;42.11;18.65
59409;BME280;45213;32.654;-115.458;2022-07-21T01:13:11;100770.72;;;42.19;17.64
59409;BME280;45213;32.654;-115.458;2022-07-21T01:15:49;100757.50;;;42.01;18.15
59409;BME280;45213;32.654;-115.458;2022-07-21T01:18:18;100760.22;;;42.01;17.92
59409;BME280;45213;32.654;-115.458;2022-07-21T01:20:53;100757.97;;;41.90;18.66
59409;BME280;45213;32.654;-115.458;2022-07-21T01:23:25;100756.38;;;41.81;19.15
59409;BME280;45213;32.654;-115.458;2022-07-21T01:25:52;100759.25;;;41.72;18.99
59409;BME280;45213;32.654;-115.458;2022-07-21T01:28:23;100755.72;;;41.79;18.82
59409;BME280;45213;32.654;-115.458;2022-07-21T01:30:54;100763.00;;;41.71;19.24
59409;BME280;45213;32.654;-115.458;2022-07-21T01:33:25;100752.53;;;41.75;19.44
59409;BME280;45213;32.654;-115.458;2022-07-21T01:35:58;100744.06;;;41.40;20.28
59409;BME280;45213;32.654;-115.458;2022-07-21T01:38:26;100751.06;;;41.28;20.24
59409;BME280;45213;32.654;-115.458;2022-07-21T01:41:14;100759.16;;;41.21;20.86
59409;BME280;45213;32.654;-115.458;2022-07-21T01:44:05;100760.56;;;41.17;21.06
59409;BME280;45213;32.654;-115.458;2022-07-21T01:46:37;100765.84;;;41.19;21.77
59409;BME280;45213;32.654;-115.458;2022-07-21T01:49:15;100765.94;;;41.25;21.65
59409;BME280;45213;32.654;-115.458;2022-07-21T01:51:47;100769.13;;;41.14;21.65
59409;BME280;45213;32.654;-115.458;2022-07-21T01:54:20;100756.94;;;41.02;21.85
59409;BME280;45213;32.654;-115.458;2022-07-21T01:56:51;100752.59;;;40.92;21.56
59409;BME280;45213;32.654;-115.458;2022-07-21T01:59:22;100753.69;;;40.83;21.50
59409;BME280;45213;32.654;-115.458;2022-07-21T02:01:52;100763.03;;;40.89;21.95
59409;BME280;45213;32.654;-115.458;2022-07-21T02:04:27;100763.88;;;40.89;21.96
59409;BME280;45213;32.654;-115.458;2022-07-21T02:06:55;100756.16;;;40.78;22.82
59409;BME280;45213;32.654;-115.458;2022-07-21T02:09:25;100764.28;;;40.63;22.17
59409;BME280;45213;32.654;-115.458;2022-07-21T02:11:55;100767.56;;;40.59;22.38
59409;BME280;45213;32.654;-115.458;2022-07-21T02:14:27;100761.66;;;40.47;22.53
59409;BME280;45213;32.654;-115.458;2022-07-21T02:16:54;100765.97;;;40.41;22.69
59409;BME280;45213;32.654;-115.458;2022-07-21T02:19:30;100763.63;;;40.38;22.27
59409;BME280;45213;32.654;-115.458;2022-07-21T02:21:58;100769.38;;;40.43;22.38
59409;BME280;45213;32.654;-115.458;2022-07-21T02:24:25;100755.00;;;40.26;23.22
59409;BME280;45213;32.654;-115.458;2022-07-21T02:26:53;100766.41;;;40.22;23.64
59409;BME280;45213;32.654;-115.458;2022-07-21T02:29:22;100765.66;;;40.13;23.58
59409;BME280;45213;32.654;-115.458;2022-07-21T02:31:49;100775.41;;;39.99;24.02
59409;BME280;45213;32.654;-115.458;2022-07-21T02:34:19;100775.94;;;40.03;23.95
59409;BME280;45213;32.654;-115.458;2022-07-21T02:36:45;100764.59;;;39.91;23.88
59409;BME280;45213;32.654;-115.458;2022-07-21T02:39:12;100775.13;;;39.94;23.54
59409;BME280;45213;32.654;-115.458;2022-07-21T02:41:38;100785.56;;;39.82;23.80
59409;BME280;45213;32.654;-115.458;2022-07-21T02:44:05;100787.47;;;39.82;23.61
59409;BME280;45213;32.654;-115.458;2022-07-21T02:46:32;100794.25;;;39.78;23.57
59409;BME280;45213;32.654;-115.458;2022-07-21T02:48:58;100797.88;;;39.70;23.76
59409;BME280;45213;32.654;-115.458;2022-07-21T02:51:25;100805.03;;;39.63;23.64
59409;BME280;45213;32.654;-115.458;2022-07-21T02:53:51;100803.72;;;39.59;23.88
59409;BME280;45213;32.654;-115.458;2022-07-21T02:56:18;100814.41;;;39.68;23.58
59409;BME280;45213;32.654;-115.458;2022-07-21T02:58:45;100804.56;;;39.59;22.23
59409;BME280;45213;32.654;-115.458;2022-07-21T03:01:14;100823.41;;;39.77;18.23
59409;BME280;45213;32.654;-115.458;2022-07-21T03:03:41;100826.78;;;39.79;16.85
59409;BME280;45213;32.654;-115.458;2022-07-21T03:06:09;100822.88;;;39.74;15.87
59409;BME280;45213;32.654;-115.458;2022-07-21T03:08:36;100820.31;;;39.72;15.49
59409;BME280;45213;32.654;-115.458;2022-07-21T03:11:03;100830.38;;;39.72;15.33
59409;BME280;45213;32.654;-115.458;2022-07-21T03:13:30;100833.31;;;39.70;15.42
59409;BME280;45213;32.654;-115.458;2022-07-21T03:15:59;100844.06;;;39.63;15.56
59409;BME280;45213;32.654;-115.458;2022-07-21T03:18:26;100833.53;;;39.52;15.49
59409;BME280;45213;32.654;-115.458;2022-07-21T03:20:53;100827.25;;;39.43;14.87
59409;BME280;45213;32.654;-115.458;2022-07-21T03:23:22;100846.31;;;39.43;14.88
59409;BME280;45213;32.654;-115.458;2022-07-21T03:25:49;100851.59;;;39.45;14.97
59409;BME280;45213;32.654;-115.458;2022-07-21T03:28:16;100847.84;;;39.38;14.33
59409;BME280;45213;32.654;-115.458;2022-07-21T03:30:44;100847.00;;;39.45;14.40
59409;BME280;45213;32.654;-115.458;2022-07-21T03:33:11;100847.69;;;39.47;14.19
59409;BME280;45213;32.654;-115.458;2022-07-21T03:35:38;100848.19;;;39.43;14.29
59409;BME280;45213;32.654;-115.458;2022-07-21T03:38:05;100846.84;;;39.39;14.57
59409;BME280;45213;32.654;-115.458;2022-07-21T03:40:34;100851.94;;;39.25;14.46
59409;BME280;45213;32.654;-115.458;2022-07-21T03:43:03;100854.66;;;39.17;14.27
59409;BME280;45213;32.654;-115.458;2022-07-21T03:45:33;100861.09;;;39.33;14.54
59409;BME280;45213;32.654;-115.458;2022-07-21T03:48:04;100861.28;;;39.31;14.69
59409;BME280;45213;32.654;-115.458;2022-07-21T03:50:40;100864.88;;;39.23;14.99
59409;BME280;45213;32.654;-115.458;2022-07-21T03:56:22;100875.09;;;39.13;14.35
59409;BME280;45213;32.654;-115.458;2022-07-21T03:58:49;100874.75;;;39.08;14.48
59409;BME280;45213;32.654;-115.458;2022-07-21T04:01:16;100874.94;;;39.07;14.80
59409;BME280;45213;32.654;-115.458;2022-07-21T04:03:42;100869.63;;;38.89;14.96
59409;BME280;45213;32.654;-115.458;2022-07-21T04:06:09;100874.03;;;38.73;14.86
59409;BME280;45213;32.654;-115.458;2022-07-21T04:08:37;100875.03;;;38.64;15.04
59409;BME280;45213;32.654;-115.458;2022-07-21T04:11:05;100874.00;;;38.57;15.46
59409;BME280;45213;32.654;-115.458;2022-07-21T04:13:31;100877.22;;;38.52;15.28
59409;BME280;45213;32.654;-115.458;2022-07-21T04:16:07;100875.97;;;38.47;15.70
59409;BME280;45213;32.654;-115.458;2022-07-21T04:18:33;100880.25;;;38.49;15.57
59409;BME280;45213;32.654;-115.458;2022-07-21T04:21:00;100877.31;;;38.42;15.99
59409;BME280;45213;32.654;-115.458;2022-07-21T04:23:30;100879.03;;;38.43;15.66
59409;BME280;45213;32.654;-115.458;2022-07-21T04:25:58;100886.34;;;38.43;15.99
59409;BME280;45213;32.654;-115.458;2022-07-21T04:28:28;100890.56;;;38.37;18.07
59409;BME280;45213;32.654;-115.458;2022-07-21T04:30:55;100888.34;;;38.33;20.44
59409;BME280;45213;32.654;-115.458;2022-07-21T04:33:25;100897.31;;;38.17;22.29
59409;BME280;45213;32.654;-115.458;2022-07-21T04:35:52;100898.53;;;37.96;24.42
59409;BME280;45213;32.654;-115.458;2022-07-21T04:38:18;100899.50;;;37.87;25.64
59409;BME280;45213;32.654;-115.458;2022-07-21T04:40:47;100901.88;;;37.82;27.39
59409;BME280;45213;32.654;-115.458;2022-07-21T04:43:17;100897.13;;;37.84;29.51
59409;BME280;45213;32.654;-115.458;2022-07-21T04:45:43;100905.06;;;37.77;31.67
59409;BME280;45213;32.654;-115.458;2022-07-21T04:48:10;100906.56;;;37.72;32.07
59409;BME280;45213;32.654;-115.458;2022-07-21T04:50:36;100902.44;;;37.68;32.89
59409;BME280;45213;32.654;-115.458;2022-07-21T04:53:03;100907.84;;;37.59;32.84
59409;BME280;45213;32.654;-115.458;2022-07-21T04:55:30;100894.97;;;37.61;32.79
59409;BME280;45213;32.654;-115.458;2022-07-21T04:57:57;100901.38;;;37.60;32.75
59409;BME280;45213;32.654;-115.458;2022-07-21T05:00:25;100901.03;;;37.55;32.94
59409;BME280;45213;32.654;-115.458;2022-07-21T05:02:56;100901.94;;;37.46;33.29
59409;BME280;45213;32.654;-115.458;2022-07-21T05:05:22;100909.06;;;37.47;33.02
59409;BME280;45213;32.654;-115.458;2022-07-21T05:07:49;100911.63;;;37.49;32.71
59409;BME280;45213;32.654;-115.458;2022-07-21T05:10:17;100917.19;;;37.39;33.10
59409;BME280;45213;32.654;-115.458;2022-07-21T05:12:44;100918.97;;;37.30;33.50
59409;BME280;45213;32.654;-115.458;2022-07-21T05:15:14;100913.31;;;37.24;32.21
59409;BME280;45213;32.654;-115.458;2022-07-21T05:17:41;100910.22;;;37.18;32.15
59409;BME280;45213;32.654;-115.458;2022-07-21T05:20:12;100911.44;;;37.24;31.81
59409;BME280;45213;32.654;-115.458;2022-07-21T05:22:39;100910.03;;;37.20;32.18
59409;BME280;45213;32.654;-115.458;2022-07-21T05:25:09;100907.75;;;37.07;32.19
59409;BME280;45213;32.654;-115.458;2022-07-21T05:27:36;100901.22;;;37.00;32.50
59409;BME280;45213;32.654;-115.458;2022-07-21T05:30:03;100899.34;;;37.00;32.32
59409;BME280;45213;32.654;-115.458;2022-07-21T05:32:30;100906.88;;;36.89;32.52
59409;BME280;45213;32.654;-115.458;2022-07-21T05:34:57;100900.66;;;36.78;32.65
59409;BME280;45213;32.654;-115.458;2022-07-21T05:37:23;100888.84;;;36.70;33.00
59409;BME280;45213;32.654;-115.458;2022-07-21T05:39:53;100889.03;;;36.68;33.24
59409;BME280;45213;32.654;-115.458;2022-07-21T05:42:20;100872.34;;;36.63;32.70
59409;BME280;45213;32.654;-115.458;2022-07-21T05:44:49;100890.66;;;36.61;32.72
59409;BME280;45213;32.654;-115.458;2022-07-21T05:47:16;100880.38;;;36.55;32.98
59409;BME280;45213;32.654;-115.458;2022-07-21T05:49:45;100881.94;;;36.57;32.75
59409;BME280;45213;32.654;-115.458;2022-07-21T05:52:11;100878.97;;;36.51;32.61
59409;BME280;45213;32.654;-115.458;2022-07-21T05:54:38;100881.59;;;36.43;32.93
59409;BME280;45213;32.654;-115.458;2022-07-21T05:57:05;100896.63;;;36.37;33.22
59409;BME280;45213;32.654;-115.458;2022-07-21T05:59:34;100872.81;;;36.31;33.09
59409;BME280;45213;32.654;-115.458;2022-07-21T06:02:01;100868.31;;;36.22;33.33
59409;BME280;45213;32.654;-115.458;2022-07-21T06:04:28;100878.31;;;36.21;33.92
59409;BME280;45213;32.654;-115.458;2022-07-21T06:06:54;100869.94;;;36.05;33.87
59409;BME280;45213;32.654;-115.458;2022-07-21T06:09:21;100868.94;;;36.06;33.92
59409;BME280;45213;32.654;-115.458;2022-07-21T06:11:48;100875.25;;;35.96;34.34
59409;BME280;45213;32.654;-115.458;2022-07-21T06:14:14;100874.72;;;35.83;34.17
59409;BME280;45213;32.654;-115.458;2022-07-21T06:16:41;100875.63;;;35.74;34.89
59409;BME280;45213;32.654;-115.458;2022-07-21T06:19:08;100874.19;;;35.70;34.29
59409;BME280;45213;32.654;-115.458;2022-07-21T06:21:35;100867.94;;;35.60;35.07
59409;BME280;45213;32.654;-115.458;2022-07-21T06:24:02;100877.53;;;35.44;35.80
59409;BME280;45213;32.654;-115.458;2022-07-21T06:26:28;100866.59;;;35.26;36.64
59409;BME280;45213;32.654;-115.458;2022-07-21T06:28:55;100864.88;;;35.16;37.00
59409;BME280;45213;32.654;-115.458;2022-07-21T06:31:21;100854.34;;;35.03;37.04
59409;BME280;45213;32.654;-115.458;2022-07-21T06:33:48;100861.72;;;35.10;36.60
59409;BME280;45213;32.654;-115.458;2022-07-21T06:36:15;100852.88;;;35.08;37.26
59409;BME280;45213;32.654;-115.458;2022-07-21T06:38:42;100843.22;;;34.96;37.52
59409;BME280;45213;32.654;-115.458;2022-07-21T06:41:11;100846.22;;;34.93;37.63
59409;BME280;45213;32.654;-115.458;2022-07-21T06:43:37;100853.50;;;35.02;37.59
59409;BME280;45213;32.654;-115.458;2022-07-21T06:46:04;100833.25;;;34.97;36.92
59409;BME280;45213;32.654;-115.458;2022-07-21T06:48:31;100855.06;;;35.14;36.97
59409;BME280;45213;32.654;-115.458;2022-07-21T06:50:57;100846.66;;;35.18;35.89
59409;BME280;45213;32.654;-115.458;2022-07-21T06:53:24;100849.78;;;35.23;35.51
59409;BME280;45213;32.654;-115.458;2022-07-21T06:55:52;100842.38;;;35.25;34.55
59409;BME280;45213;32.654;-115.458;2022-07-21T06:58:21;100843.78;;;35.29;32.80
59409;BME280;45213;32.654;-115.458;2022-07-21T07:00:49;100847.50;;;35.28;33.02
59409;BME280;45213;32.654;-115.458;2022-07-21T07:03:17;100855.75;;;35.26;34.00
59409;BME280;45213;32.654;-115.458;2022-07-21T07:05:47;100846.38;;;35.21;34.55
59409;BME280;45213;32.654;-115.458;2022-07-21T07:08:15;100837.97;;;35.04;35.33
59409;BME280;45213;32.654;-115.458;2022-07-21T07:10:45;100832.41;;;34.96;34.80
59409;BME280;45213;32.654;-115.458;2022-07-21T07:13:14;100832.25;;;34.88;34.75
59409;BME280;45213;32.654;-115.458;2022-07-21T07:15:41;100829.84;;;34.85;33.47
59409;BME280;45213;32.654;-115.458;2022-07-21T07:18:11;100828.00;;;34.76;32.92
59409;BME280;45213;32.654;-115.458;2022-07-21T07:20:37;100825.84;;;34.69;32.99
59409;BME280;45213;32.654;-115.458;2022-07-21T07:23:05;100820.16;;;34.63;32.89
59409;BME280;45213;32.654;-115.458;2022-07-21T07:25:35;100806.75;;;34.42;28.46
59409;BME280;45213;32.654;-115.458;2022-07-21T07:28:04;100811.88;;;34.55;27.68
59409;BME280;45213;32.654;-115.458;2022-07-21T07:30:31;100806.47;;;34.55;26.19
59409;BME280;45213;32.654;-115.458;2022-07-21T07:32:57;100798.34;;;34.45;26.00
59409;BME280;45213;32.654;-115.458;2022-07-21T07:35:24;100797.91;;;34.40;25.95
59409;BME280;45213;32.654;-115.458;2022-07-21T07:37:51;100795.81;;;34.43;25.79
59409;BME280;45213;32.654;-115.458;2022-07-21T07:40:20;100790.53;;;34.42;25.75
59409;BME280;45213;32.654;-115.458;2022-07-21T07:42:48;100793.06;;;34.34;25.73
59409;BME280;45213;32.654;-115.458;2022-07-21T07:45:14;100770.00;;;34.10;25.52
59409;BME280;45213;32.654;-115.458;2022-07-21T07:47:41;100788.50;;;34.24;25.33
59409;BME280;45213;32.654;-115.458;2022-07-21T07:50:11;100794.38;;;34.29;24.57
59409;BME280;45213;32.654;-115.458;2022-07-21T07:52:39;100788.25;;;34.27;24.50
59409;BME280;45213;32.654;-115.458;2022-07-21T07:55:06;100797.31;;;34.26;24.98
59409;BME280;45213;32.654;-115.458;2022-07-21T07:57:37;100784.22;;;34.22;25.19
59409;BME280;45213;32.654;-115.458;2022-07-21T08:00:07;100801.59;;;34.29;25.11
59409;BME280;45213;32.654;-115.458;2022-07-21T08:02:38;100809.41;;;34.22;25.04
59409;BME280;45213;32.654;-115.458;2022-07-21T08:05:05;100819.47;;;34.10;25.25
59409;BME280;45213;32.654;-115.458;2022-07-21T08:07:37;100806.75;;;34.01;25.65
59409;BME280;45213;32.654;-115.458;2022-07-21T08:10:10;100808.59;;;33.91;25.38
59409;BME280;45213;32.654;-115.458;2022-07-21T08:12:39;100819.16;;;34.04;24.74
59409;BME280;45213;32.654;-115.458;2022-07-21T08:15:06;100810.25;;;34.13;24.89
59409;BME280;45213;32.654;-115.458;2022-07-21T08:17:33;100818.63;;;34.10;23.78
59409;BME280;45213;32.654;-115.458;2022-07-21T08:20:00;100806.28;;;34.17;23.44
59409;BME280;45213;32.654;-115.458;2022-07-21T08:22:26;100818.94;;;34.26;23.75
59409;BME280;45213;32.654;-115.458;2022-07-21T08:24:53;100821.81;;;34.25;24.06
59409;BME280;45213;32.654;-115.458;2022-07-21T08:27:20;100825.47;;;34.14;24.26
59409;BME280;45213;32.654;-115.458;2022-07-21T08:29:47;100823.91;;;34.12;23.26
59409;BME280;45213;32.654;-115.458;2022-07-21T08:32:13;100827.16;;;34.15;23.65
59409;BME280;45213;32.654;-115.458;2022-07-21T08:34:41;100823.75;;;34.13;23.57
59409;BME280;45213;32.654;-115.458;2022-07-21T08:37:07;100823.50;;;34.16;23.41
59409;BME280;45213;32.654;-115.458;2022-07-21T08:39:34;100816.94;;;34.19;22.97
59409;BME280;45213;32.654;-115.458;2022-07-21T08:42:01;100819.53;;;34.20;22.67
59409;BME280;45213;32.654;-115.458;2022-07-21T08:44:29;100809.81;;;34.18;22.67
59409;BME280;45213;32.654;-115.458;2022-07-21T08:46:57;100809.53;;;34.11;22.95
59409;BME280;45213;32.654;-115.458;2022-07-21T08:49:24;100813.81;;;34.14;23.43
59409;BME280;45213;32.654;-115.458;2022-07-21T08:51:51;100826.34;;;34.24;22.87
59409;BME280;45213;32.654;-115.458;2022-07-21T08:54:22;100828.59;;;34.19;22.58
59409;BME280;45213;32.654;-115.458;2022-07-21T08:56:49;100828.56;;;34.09;22.86
59409;BME280;45213;32.654;-115.458;2022-07-21T08:59:16;100830.22;;;34.01;23.17
59409;BME280;45213;32.654;-115.458;2022-07-21T09:01:43;100827.81;;;33.98;23.12
59409;BME280;45213;32.654;-115.458;2022-07-21T09:04:36;100838.88;;;33.95;23.25
59409;BME280;45213;32.654;-115.458;2022-07-21T09:07:06;100838.44;;;33.89;23.42
59409;BME280;45213;32.654;-115.458;2022-07-21T09:09:34;100850.41;;;33.97;23.72
59409;BME280;45213;32.654;-115.458;2022-07-21T09:12:02;100865.16;;;33.93;23.63
59409;BME280;45213;32.654;-115.458;2022-07-21T09:14:32;100860.25;;;33.98;24.12
59409;BME280;45213;32.654;-115.458;2022-07-21T09:17:03;100863.19;;;33.95;23.85
59409;BME280;45213;32.654;-115.458;2022-07-21T09:19:36;100865.16;;;33.93;23.44
59409;BME280;45213;32.654;-115.458;2022-07-21T09:22:16;100863.19;;;33.95;24.43
59409;BME280;45213;32.654;-115.458;2022-07-21T09:24:51;100863.19;;;33.95;23.43
59409;BME280;45213;32.654;-115.458;2022-07-21T09:27:21;100838.09;;;33.73;24.30
59409;BME280;45213;32.654;-115.458;2022-07-21T09:30:07;100848.69;;;33.65;24.38
59409;BME280;45213;32.654;-115.458;2022-07-21T09:32:36;100841.31;;;33.67;24.56
59409;BME280;45213;32.654;-115.458;2022-07-21T09:35:06;100847.53;;;33.58;24.48
59409;BME280;45213;32.654;-115.458;2022-07-21T09:37:36;100830.00;;;33.52;24.94
59409;BME280;45213;32.654;-115.458;2022-07-21T09:40:08;100832.84;;;33.51;25.14
59409;BME280;45213;32.654;-115.458;2022-07-21T09:43:02;100824.69;;;33.41;24.80
59409;BME280;45213;32.654;-115.458;2022-07-21T09:45:36;100809.88;;;33.35;24.83
59409;BME280;45213;32.654;-115.458;2022-07-21T09:48:03;100821.91;;;33.31;24.88
59409;BME280;45213;32.654;-115.458;2022-07-21T09:50:30;100812.38;;;33.27;25.15
59409;BME280;45213;32.654;-115.458;2022-07-21T09:52:57;100808.09;;;33.24;25.31
59409;BME280;45213;32.654;-115.458;2022-07-21T09:55:24;100811.28;;;33.30;24.05
59409;BME280;45213;32.654;-115.458;2022-07-21T09:57:51;100814.53;;;33.33;24.17
59409;BME280;45213;32.654;-115.458;2022-07-21T10:00:19;100813.81;;;33.31;24.96
59409;BME280;45213;32.654;-115.458;2022-07-21T10:02:47;100817.50;;;33.30;25.50
59409;BME280;45213;32.654;-115.458;2022-07-21T10:05:17;100814.88;;;33.19;25.95
59409;BME280;45213;32.654;-115.458;2022-07-21T10:07:46;100825.63;;;33.09;26.31
59409;BME280;45213;32.654;-115.458;2022-07-21T10:10:14;100813.84;;;32.99;27.00
59409;BME280;45213;32.654;-115.458;2022-07-21T10:12:41;100827.72;;;33.05;26.64
59409;BME280;45213;32.654;-115.458;2022-07-21T10:15:11;100832.75;;;32.99;27.34
59409;BME280;45213;32.654;-115.458;2022-07-21T10:17:38;100849.31;;;32.94;27.13
59409;BME280;45213;32.654;-115.458;2022-07-21T10:20:24;100846.72;;;32.93;27.58
59409;BME280;45213;32.654;-115.458;2022-07-21T10:23:42;100859.66;;;32.89;26.97
59409;BME280;45213;32.654;-115.458;2022-07-21T10:26:15;100855.09;;;32.90;27.51
59409;BME280;45213;32.654;-115.458;2022-07-21T10:28:43;100838.56;;;32.83;27.24
59409;BME280;45213;32.654;-115.458;2022-07-21T10:41:39;100842.00;;;32.85;27.60
59409;BME280;45213;32.654;-115.458;2022-07-21T10:47:11;100841.66;;;32.78;26.76
59409;BME280;45213;32.654;-115.458;2022-07-21T10:49:56;100834.56;;;32.77;27.54
59409;BME280;45213;32.654;-115.458;2022-07-21T10:57:47;100826.38;;;32.67;31.52
59409;BME280;45213;32.654;-115.458;2022-07-21T11:00:33;100828.22;;;32.67;32.20
59409;BME280;45213;32.654;-115.458;2022-07-21T11:03:03;100815.25;;;32.61;33.88
59409;BME280;45213;32.654;-115.458;2022-07-21T11:05:33;100830.84;;;32.57;34.74
59409;BME280;45213;32.654;-115.458;2022-07-21T11:10:39;100842.19;;;32.50;36.50
59409;BME280;45213;32.654;-115.458;2022-07-21T11:13:06;100829.84;;;32.47;37.00
59409;BME280;45213;32.654;-115.458;2022-07-21T11:18:19;100842.72;;;32.43;39.95
59409;BME280;45213;32.654;-115.458;2022-07-21T11:21:12;100841.38;;;32.38;42.16
59409;BME280;45213;32.654;-115.458;2022-07-21T11:23:47;100839.31;;;32.41;42.32
59409;BME280;45213;32.654;-115.458;2022-07-21T11:26:17;100834.03;;;32.40;44.14
59409;BME280;45213;32.654;-115.458;2022-07-21T11:28:45;100835.25;;;32.36;44.72
59409;BME280;45213;32.654;-115.458;2022-07-21T11:31:19;100827.44;;;32.33;45.97
59409;BME280;45213;32.654;-115.458;2022-07-21T11:33:50;100834.16;;;32.27;47.17
59409;BME280;45213;32.654;-115.458;2022-07-21T11:36:31;100832.84;;;32.21;48.75
59409;BME280;45213;32.654;-115.458;2022-07-21T11:39:05;100839.25;;;32.09;50.08
59409;BME280;45213;32.654;-115.458;2022-07-21T11:41:36;100830.66;;;32.04;51.18
59409;BME280;45213;32.654;-115.458;2022-07-21T11:44:05;100837.53;;;31.97;53.13
59409;BME280;45213;32.654;-115.458;2022-07-21T11:46:58;100840.66;;;31.91;54.58
59409;BME280;45213;32.654;-115.458;2022-07-21T11:49:26;100833.69;;;31.88;55.25
59409;BME280;45213;32.654;-115.458;2022-07-21T11:52:11;100837.50;;;31.86;55.64
59409;BME280;45213;32.654;-115.458;2022-07-21T11:54:48;100840.81;;;31.78;56.53
59409;BME280;45213;32.654;-115.458;2022-07-21T11:57:17;100834.94;;;31.61;56.64
59409;BME280;45213;32.654;-115.458;2022-07-21T11:59:45;100846.78;;;31.70;57.01
59409;BME280;45213;32.654;-115.458;2022-07-21T12:02:21;100840.19;;;31.63;57.32
59409;BME280;45213;32.654;-115.458;2022-07-21T12:07:43;100878.84;;;31.62;57.48
59409;BME280;45213;32.654;-115.458;2022-07-21T12:10:12;100879.06;;;31.59;58.28
59409;BME280;45213;32.654;-115.458;2022-07-21T12:12:44;100884.44;;;31.59;57.85
59409;BME280;45213;32.654;-115.458;2022-07-21T12:15:24;100892.19;;;31.52;58.63
59409;BME280;45213;32.654;-115.458;2022-07-21T12:18:18;100897.91;;;31.48;58.66
59409;BME280;45213;32.654;-115.458;2022-07-21T12:20:45;100912.09;;;31.50;58.55
59409;BME280;45213;32.654;-115.458;2022-07-21T12:23:27;100905.59;;;31.41;58.48
59409;BME280;45213;32.654;-115.458;2022-07-21T12:25:56;100912.75;;;31.40;59.26
59409;BME280;45213;32.654;-115.458;2022-07-21T12:31:12;100913.25;;;31.34;59.26
59409;BME280;45213;32.654;-115.458;2022-07-21T12:33:40;100921.44;;;31.33;59.36
59409;BME280;45213;32.654;-115.458;2022-07-21T12:36:08;100914.16;;;31.22;59.50
59409;BME280;45213;32.654;-115.458;2022-07-21T12:38:55;100939.63;;;31.29;59.70
59409;BME280;45213;32.654;-115.458;2022-07-21T12:41:22;100942.22;;;31.31;59.48
59409;BME280;45213;32.654;-115.458;2022-07-21T12:43:56;100926.88;;;31.20;59.38
59409;BME280;45213;32.654;-115.458;2022-07-21T12:46:31;100928.81;;;31.18;59.53
59409;BME280;45213;32.654;-115.458;2022-07-21T12:49:06;100944.75;;;31.21;59.45
59409;BME280;45213;32.654;-115.458;2022-07-21T12:51:33;100948.94;;;31.25;59.09
59409;BME280;45213;32.654;-115.458;2022-07-21T12:53:59;100942.28;;;31.18;58.14
59409;BME280;45213;32.654;-115.458;2022-07-21T12:56:31;100941.56;;;31.16;57.81
59409;BME280;45213;32.654;-115.458;2022-07-21T12:58:59;100954.03;;;31.17;57.35
59409;BME280;45213;32.654;-115.458;2022-07-21T13:01:27;100946.78;;;31.17;56.78
59409;BME280;45213;32.654;-115.458;2022-07-21T13:03:55;100949.38;;;31.19;56.57
59409;BME280;45213;32.654;-115.458;2022-07-21T13:06:21;100947.16;;;31.13;56.51
59409;BME280;45213;32.654;-115.458;2022-07-21T13:08:49;100962.31;;;31.14;56.57
59409;BME280;45213;32.654;-115.458;2022-07-21T13:11:19;100967.81;;;31.12;56.57